createdAt,value
2022-12-04T00:00:42.709Z,101583.44
2022-12-04T00:05:20.560Z,101591.22
2022-12-04T00:06:24.351Z,101585.16
2022-12-04T00:09:50.827Z,101590.31
2022-12-04T00:10:53.347Z,101592.87
2022-12-04T00:14:21.755Z,101600.66
2022-12-04T00:15:26.203Z,101588.56
2022-12-04T00:16:30.107Z,101589.41
2022-12-04T00:19:38.243Z,101591.97
2022-12-04T00:20:41.163Z,101600.63
2022-12-04T00:24:09.739Z,101599.75
2022-12-04T00:25:12.431Z,101605.78
2022-12-04T00:28:40.746Z,101598.00
2022-12-04T00:29:43.339Z,101601.47
2022-12-04T00:33:11.720Z,101604.06
2022-12-04T00:34:14.695Z,101597.16
2022-12-04T00:37:43.728Z,101601.44
2022-12-04T00:38:47.179Z,101605.81
2022-12-04T00:42:13.856Z,101608.41
2022-12-04T00:43:16.755Z,101605.81
2022-12-04T00:46:45.754Z,101603.19
2022-12-04T00:47:48.537Z,101603.19
2022-12-04T00:51:17.728Z,101600.63
2022-12-04T00:52:20.275Z,101599.75
2022-12-04T00:55:49.731Z,101609.25
2022-12-04T00:56:52.629Z,101603.25
2022-12-04T00:57:59.697Z,101603.22
2022-12-04T00:59:02.951Z,101603.25
2022-12-04T01:00:19.827Z,101606.69
2022-12-04T01:01:23.342Z,101600.66
2022-12-04T01:02:26.123Z,101601.50
2022-12-04T01:05:42.718Z,101603.22
2022-12-04T01:06:47.198Z,101598.06
2022-12-04T01:10:05.294Z,101605.81
2022-12-04T01:11:08.223Z,101601.47
2022-12-04T01:14:34.827Z,101603.25
2022-12-04T01:15:43.672Z,101604.09
2022-12-04T01:19:09.362Z,101608.41
2022-12-04T01:20:14.371Z,101611.00
2022-12-04T01:23:35.901Z,101608.41
2022-12-04T01:24:38.521Z,101611.00
2022-12-04T01:28:07.732Z,101607.53
2022-12-04T01:29:10.264Z,101605.81
2022-12-04T01:32:38.734Z,101610.16
2022-12-04T01:33:42.767Z,101610.16
2022-12-04T01:34:45.761Z,101594.66
2022-12-04T01:35:53.782Z,101608.44
2022-12-04T01:37:09.803Z,101603.28
2022-12-04T01:38:12.402Z,101597.22
2022-12-04T01:39:15.245Z,101596.37
2022-12-04T01:42:23.643Z,101599.81
2022-12-04T01:43:30.185Z,101596.37
2022-12-04T01:46:52.884Z,101599.81
2022-12-04T01:48:02.508Z,101599.81
2022-12-04T01:51:31.958Z,101580.81
2022-12-04T01:52:34.826Z,101577.38
2022-12-04T01:55:55.223Z,101586.00
2022-12-04T02:01:18.964Z,101588.56
2022-12-04T02:06:05.668Z,101583.41
2022-12-04T02:07:09.251Z,101575.66
2022-12-04T02:08:12.338Z,101581.69
2022-12-04T02:11:46.643Z,101583.41
2022-12-04T02:21:12.020Z,101592.91
2022-12-04T02:27:01.292Z,101598.91
2022-12-04T02:28:13.091Z,101592.87
2022-12-04T02:31:31.234Z,101591.19
2022-12-04T02:35:01.598Z,101583.41
2022-12-04T02:36:19.633Z,101577.38
2022-12-04T02:37:38.085Z,101583.41
2022-12-04T02:38:44.592Z,101582.56
2022-12-04T02:40:09.648Z,101581.66
2022-12-04T02:41:52.614Z,101573.91
2022-12-04T02:43:07.193Z,101578.19
2022-12-04T02:44:15.500Z,101575.63
2022-12-04T02:45:26.302Z,101575.63
2022-12-04T02:46:35.626Z,101586.84
2022-12-04T02:47:41.356Z,101575.63
2022-12-04T02:48:49.412Z,101579.94
2022-12-04T02:50:05.425Z,101573.00
2022-12-04T02:51:11.855Z,101570.41
2022-12-04T02:52:20.825Z,101580.78
2022-12-04T02:53:28.667Z,101578.19
2022-12-04T02:54:39.483Z,101579.06
2022-12-04T02:55:46.446Z,101577.34
2022-12-04T02:56:51.123Z,101570.44
2022-12-04T02:57:59.579Z,101583.34
2022-12-04T02:59:08.547Z,101582.50
2022-12-04T03:00:11.900Z,101582.50
2022-12-04T03:01:21.000Z,101586.81
2022-12-04T03:02:53.591Z,101581.66
2022-12-04T03:03:56.571Z,101579.06
2022-12-04T03:05:02.134Z,101570.41
2022-12-04T03:06:10.473Z,101572.19
2022-12-04T03:07:18.161Z,101571.28
2022-12-04T03:08:26.337Z,101576.47
2022-12-04T03:09:58.883Z,101568.72
2022-12-04T03:11:02.392Z,101563.50
2022-12-04T03:12:19.312Z,101565.25
2022-12-04T03:13:29.149Z,101568.69
2022-12-04T03:14:38.158Z,101569.59
2022-12-04T03:15:49.454Z,101558.34
2022-12-04T03:16:57.840Z,101556.66
2022-12-04T03:18:05.495Z,101572.22
2022-12-04T03:19:15.489Z,101574.78
2022-12-04T03:20:20.020Z,101578.22
2022-12-04T03:21:28.167Z,101570.47
2022-12-04T03:22:33.762Z,101563.59
2022-12-04T03:23:44.404Z,101578.25
2022-12-04T03:24:55.575Z,101564.50
2022-12-04T03:26:01.762Z,101577.41
2022-12-04T03:27:23.409Z,101570.50
2022-12-04T03:28:34.613Z,101575.69
2022-12-04T03:30:01.676Z,101573.94
2022-12-04T03:31:09.873Z,101573.09
2022-12-04T03:32:17.986Z,101572.25
2022-12-04T03:33:28.884Z,101559.34
2022-12-04T03:34:48.545Z,101568.81
2022-12-04T03:36:05.397Z,101561.91
2022-12-04T03:37:14.874Z,101566.25
2022-12-04T03:38:54.356Z,101555.91
2022-12-04T03:40:27.666Z,101562.81
2022-12-04T03:41:52.644Z,101560.22
2022-12-04T03:43:03.769Z,101560.25
2022-12-04T03:44:23.771Z,101562.81
2022-12-04T03:45:38.235Z,101540.41
2022-12-04T03:46:54.616Z,101550.75
2022-12-04T03:48:06.278Z,101558.53
2022-12-04T03:49:17.463Z,101547.31
2022-12-04T03:50:41.983Z,101554.19
2022-12-04T03:52:08.582Z,101555.91
2022-12-04T03:53:17.240Z,101552.47
2022-12-04T03:54:44.745Z,101561.94
2022-12-04T03:55:54.661Z,101558.50
2022-12-04T03:57:03.278Z,101568.03
2022-12-04T03:58:10.353Z,101568.84
2022-12-04T03:59:23.877Z,101567.16
2022-12-04T04:00:29.256Z,101566.25
2022-12-04T04:01:41.841Z,101561.97
2022-12-04T04:02:58.543Z,101567.12
2022-12-04T04:04:05.319Z,101564.56
2022-12-04T04:05:13.353Z,101561.09
2022-12-04T04:06:22.661Z,101561.09
2022-12-04T04:07:44.250Z,101560.25
2022-12-04T04:08:52.369Z,101560.25
2022-12-04T04:10:00.705Z,101558.53
2022-12-04T04:11:18.703Z,101569.72
2022-12-04T04:12:25.980Z,101564.56
2022-12-04T04:14:03.210Z,101568.87
2022-12-04T04:15:32.948Z,101561.97
2022-12-04T04:16:57.922Z,101558.53
2022-12-04T04:18:20.748Z,101560.25
2022-12-04T04:19:47.023Z,101562.84
2022-12-04T04:21:16.865Z,101556.78
2022-12-04T04:22:39.874Z,101502.59
2022-12-04T04:24:08.802Z,101559.41
2022-12-04T04:25:16.375Z,101569.75
2022-12-04T04:26:19.158Z,101562.00
2022-12-04T04:27:21.853Z,101572.34
2022-12-04T04:28:50.642Z,101569.75
2022-12-04T04:29:53.442Z,101579.25
2022-12-04T04:31:13.287Z,101572.34
2022-12-04T04:32:57.519Z,101555.09
2022-12-04T04:34:13.888Z,101561.16
2022-12-04T04:35:47.416Z,101560.28
2022-12-04T04:37:02.091Z,101553.41
2022-12-04T04:38:16.864Z,101560.28
2022-12-04T04:39:55.277Z,101560.31
2022-12-04T04:41:20.917Z,101560.28
2022-12-04T04:42:37.549Z,101560.31
2022-12-04T04:43:54.278Z,101556.88
2022-12-04T04:45:09.092Z,101553.41
2022-12-04T04:46:25.382Z,101554.28
2022-12-04T04:47:37.654Z,101558.59
2022-12-04T04:48:47.586Z,101554.28
2022-12-04T04:49:53.973Z,101561.19
2022-12-04T04:51:00.048Z,101548.25
2022-12-04T04:52:03.521Z,101553.44
2022-12-04T04:53:13.781Z,101548.25
2022-12-04T04:54:17.897Z,101550.00
2022-12-04T04:55:22.293Z,101534.50
2022-12-04T04:56:25.601Z,101533.62
2022-12-04T04:57:32.137Z,101542.25
2022-12-04T04:58:35.122Z,101546.56
2022-12-04T04:59:37.820Z,101545.69
2022-12-04T05:00:45.248Z,101542.25
2022-12-04T05:01:48.165Z,101549.16
2022-12-04T05:02:50.855Z,101542.25
2022-12-04T05:03:54.083Z,101550.88
2022-12-04T05:04:56.683Z,101540.53
2022-12-04T05:05:59.669Z,101544.81
2022-12-04T05:07:02.634Z,101552.59
2022-12-04T05:08:05.675Z,101550.00
2022-12-04T05:09:08.666Z,101562.94
2022-12-04T05:10:11.894Z,101562.06
2022-12-04T05:11:15.850Z,101567.25
2022-12-04T05:12:18.480Z,101559.47
2022-12-04T05:13:21.941Z,101571.56
2022-12-04T05:14:24.849Z,101567.25
2022-12-04T05:15:27.771Z,101570.69
2022-12-04T05:16:30.466Z,101571.53
2022-12-04T05:17:35.508Z,101578.44
2022-12-04T05:18:38.932Z,101565.50
2022-12-04T05:19:54.487Z,101582.78
2022-12-04T05:20:57.495Z,101585.34
2022-12-04T05:22:00.135Z,101581.91
2022-12-04T05:23:02.696Z,101581.88
2022-12-04T05:24:05.564Z,101577.59
2022-12-04T05:25:08.979Z,101570.69
2022-12-04T05:26:11.699Z,101579.28
2022-12-04T05:27:14.459Z,101570.69
2022-12-04T05:28:17.576Z,101572.41
2022-12-04T05:29:20.164Z,101577.59
2022-12-04T05:30:23.057Z,101564.66
2022-12-04T05:31:25.676Z,101568.97
2022-12-04T05:32:29.832Z,101568.13
2022-12-04T05:33:32.446Z,101576.72
2022-12-04T05:34:35.009Z,101566.38
2022-12-04T05:35:37.833Z,101577.59
2022-12-04T05:36:40.713Z,101567.25
2022-12-04T05:37:43.460Z,101573.28
2022-12-04T05:38:45.973Z,101575.87
2022-12-04T05:39:48.993Z,101575.87
2022-12-04T05:40:51.822Z,101565.53
2022-12-04T05:41:54.429Z,101577.62
2022-12-04T05:42:57.428Z,101583.66
2022-12-04T05:44:00.049Z,101575.87
2022-12-04T05:45:02.754Z,101587.09
2022-12-04T05:46:07.862Z,101588.81
2022-12-04T05:47:11.172Z,101583.63
2022-12-04T05:48:14.354Z,101587.06
2022-12-04T05:49:18.912Z,101586.22
2022-12-04T05:50:23.797Z,101587.06
2022-12-04T05:51:26.729Z,101586.22
2022-12-04T05:52:33.181Z,101587.09
2022-12-04T05:53:36.597Z,101590.56
2022-12-04T05:54:39.317Z,101593.13
2022-12-04T05:55:41.855Z,101596.59
2022-12-04T05:56:45.481Z,101595.72
2022-12-04T05:57:48.078Z,101583.66
2022-12-04T05:58:50.843Z,101597.41
2022-12-04T05:59:53.731Z,101593.97
2022-12-04T06:00:56.560Z,101590.53
2022-12-04T06:01:59.412Z,101593.97
2022-12-04T06:03:02.056Z,101585.38
2022-12-04T06:04:04.876Z,101569.84
2022-12-04T06:05:08.015Z,101581.03
2022-12-04T06:06:19.257Z,101581.91
2022-12-04T06:07:24.087Z,101578.44
2022-12-04T06:08:26.624Z,101577.59
2022-12-04T06:09:29.228Z,101572.44
2022-12-04T06:10:34.223Z,101579.31
2022-12-04T06:11:38.615Z,101584.50
2022-12-04T06:12:41.527Z,101587.94
2022-12-04T06:13:45.667Z,101581.91
2022-12-04T06:14:48.220Z,101593.09
2022-12-04T06:15:50.903Z,101593.13
2022-12-04T06:16:54.306Z,101595.69
2022-12-04T06:17:57.227Z,101593.09
2022-12-04T06:19:02.769Z,101591.38
2022-12-04T06:20:11.267Z,101593.13
2022-12-04T06:21:14.375Z,101595.69
2022-12-04T06:22:16.894Z,101599.16
2022-12-04T06:23:19.764Z,101600.84
2022-12-04T06:24:24.815Z,101604.31
2022-12-04T06:25:27.936Z,101599.13
2022-12-04T06:26:31.432Z,101600.88
2022-12-04T06:27:34.391Z,101594.81
2022-12-04T06:28:38.092Z,101594.81
2022-12-04T06:29:40.666Z,101602.59
2022-12-04T06:30:43.295Z,101612.94
2022-12-04T06:31:45.997Z,101606.91
2022-12-04T06:32:48.659Z,101612.94
2022-12-04T06:33:54.884Z,101612.91
2022-12-04T06:34:57.509Z,101616.37
2022-12-04T06:36:15.113Z,101608.62
2022-12-04T06:37:17.778Z,101620.69
2022-12-04T06:38:26.919Z,101617.22
2022-12-04T06:39:33.653Z,101613.78
2022-12-04T06:40:40.164Z,101625.84
2022-12-04T06:41:43.180Z,101617.22
2022-12-04T06:42:46.073Z,101606.00
2022-12-04T06:43:49.197Z,101619.81
2022-12-04T06:44:52.237Z,101612.03
2022-12-04T06:46:10.489Z,101611.16
2022-12-04T06:47:13.230Z,101615.50
2022-12-04T06:48:16.156Z,101611.16
2022-12-04T06:49:22.696Z,101613.78
2022-12-04T06:50:25.574Z,101616.34
2022-12-04T06:51:33.742Z,101613.78
2022-12-04T06:52:36.277Z,101609.44
2022-12-04T06:53:38.955Z,101617.19
2022-12-04T06:54:41.559Z,101620.66
2022-12-04T06:55:48.914Z,101623.25
2022-12-04T06:56:51.625Z,101628.44
2022-12-04T06:57:54.465Z,101623.22
2022-12-04T06:58:59.440Z,101618.06
2022-12-04T07:00:02.004Z,101621.50
2022-12-04T07:01:10.541Z,101618.91
2022-12-04T07:02:13.407Z,101618.91
2022-12-04T07:03:16.214Z,101619.75
2022-12-04T07:04:19.042Z,101626.66
2022-12-04T07:05:21.813Z,101618.03
2022-12-04T07:06:27.609Z,101616.25
2022-12-04T07:07:31.135Z,101619.72
2022-12-04T07:08:33.789Z,101621.47
2022-12-04T07:09:37.031Z,101619.72
2022-12-04T07:10:40.596Z,101631.81
2022-12-04T07:11:44.614Z,101626.63
2022-12-04T07:12:47.178Z,101630.94
2022-12-04T07:13:51.153Z,101627.47
2022-12-04T07:14:53.660Z,101625.72
2022-12-04T07:15:56.242Z,101623.13
2022-12-04T07:16:59.298Z,101621.38
2022-12-04T07:18:02.292Z,101616.22
2022-12-04T07:19:04.943Z,101616.19
2022-12-04T07:20:08.624Z,101617.91
2022-12-04T07:21:14.995Z,101620.47
2022-12-04T07:22:17.923Z,101572.28
2022-12-04T07:23:20.698Z,101623.06
2022-12-04T07:24:23.265Z,101629.91
2022-12-04T07:25:25.867Z,101623.00
2022-12-04T07:26:30.583Z,101624.72
2022-12-04T07:27:33.580Z,101620.41
2022-12-04T07:28:37.016Z,101625.56
2022-12-04T07:29:39.625Z,101619.53
2022-12-04T07:30:42.445Z,101614.31
2022-12-04T07:31:45.327Z,101616.91
2022-12-04T07:32:48.936Z,101624.66
2022-12-04T07:33:53.945Z,101617.75
2022-12-04T07:34:56.879Z,101625.50
2022-12-04T07:36:01.683Z,101624.62
2022-12-04T07:37:04.652Z,101623.75
2022-12-04T07:38:07.873Z,101622.03
2022-12-04T07:39:10.519Z,101617.69
2022-12-04T07:40:13.877Z,101615.09
2022-12-04T07:41:17.201Z,101617.66
2022-12-04T07:42:24.096Z,101605.59
2022-12-04T07:43:29.292Z,101610.72
2022-12-04T07:44:32.313Z,101617.63
2022-12-04T07:45:36.989Z,101617.59
2022-12-04T07:46:39.615Z,101616.75
2022-12-04T07:47:42.299Z,101619.31
2022-12-04T07:48:45.321Z,101617.59
2022-12-04T07:49:48.155Z,101621.00
2022-12-04T07:50:51.002Z,101619.25
2022-12-04T07:51:53.764Z,101615.81
2022-12-04T07:53:00.280Z,101613.19
2022-12-04T07:54:04.349Z,101613.19
2022-12-04T07:55:08.004Z,101611.41
2022-12-04T07:56:12.154Z,101614.03
2022-12-04T07:57:14.741Z,101609.69
2022-12-04T07:58:18.535Z,101620.91
2022-12-04T07:59:21.671Z,101620.84
2022-12-04T08:00:24.173Z,101620.84
2022-12-04T08:01:27.185Z,101621.69
2022-12-04T08:02:29.926Z,101619.94
2022-12-04T08:03:32.552Z,101624.25
2022-12-04T08:04:36.594Z,101565.69
2022-12-04T08:05:39.162Z,101616.44
2022-12-04T08:06:42.048Z,101610.41
2022-12-04T08:07:47.215Z,101611.25
2022-12-04T08:08:50.715Z,101598.34
2022-12-04T08:09:53.426Z,101601.75
2022-12-04T08:10:56.626Z,101612.06
2022-12-04T08:12:02.703Z,101616.34
2022-12-04T08:13:05.444Z,101610.28
2022-12-04T08:14:11.740Z,101612.81
2022-12-04T08:15:14.306Z,101610.19
2022-12-04T08:16:17.157Z,101601.50
2022-12-04T08:17:20.537Z,101603.19
2022-12-04T08:18:23.202Z,101611.84
2022-12-04T08:19:26.606Z,101612.69
2022-12-04T08:20:29.195Z,101613.50
2022-12-04T08:21:32.865Z,101612.63
2022-12-04T08:22:36.246Z,101611.66
2022-12-04T08:23:40.095Z,101606.44
2022-12-04T08:24:42.946Z,101602.09
2022-12-04T08:25:46.121Z,101597.69
2022-12-04T08:26:50.845Z,101590.72
2022-12-04T08:27:55.816Z,101595.84
2022-12-04T08:28:59.160Z,101593.22
2022-12-04T08:30:01.884Z,101590.59
2022-12-04T08:31:25.905Z,101594.06
2022-12-04T08:32:28.509Z,101593.22
2022-12-04T08:33:32.146Z,101594.00
2022-12-04T08:34:34.870Z,101590.50
2022-12-04T08:35:37.455Z,101587.97
2022-12-04T08:36:40.152Z,101587.13
2022-12-04T08:37:42.827Z,101584.50
2022-12-04T08:38:47.090Z,101579.34
2022-12-04T08:39:49.784Z,101583.63
2022-12-04T08:40:52.397Z,101579.31
2022-12-04T08:41:57.115Z,101582.75
2022-12-04T08:43:00.149Z,101585.34
2022-12-04T08:44:03.167Z,101586.19
2022-12-04T08:45:06.444Z,101587.88
2022-12-04T08:46:12.047Z,101592.13
2022-12-04T08:47:15.034Z,101588.66
2022-12-04T08:48:18.062Z,101590.38
2022-12-04T08:49:20.901Z,101592.13
2022-12-04T08:51:45.503Z,101588.66
2022-12-04T08:52:49.095Z,101587.78
2022-12-04T08:53:56.511Z,101567.09
2022-12-04T08:54:59.577Z,101592.06
2022-12-04T08:56:02.251Z,101581.63
2022-12-04T08:57:04.984Z,101585.00
2022-12-04T08:58:08.630Z,101585.84
2022-12-04T08:59:13.790Z,101584.91
2022-12-04T09:00:17.751Z,101583.97
2022-12-04T09:01:20.753Z,101578.72
2022-12-04T09:02:24.104Z,101570.91
2022-12-04T09:03:30.875Z,101580.41
2022-12-04T09:04:38.005Z,101580.38
2022-12-04T09:05:41.971Z,101575.28
2022-12-04T09:06:48.224Z,101574.44
2022-12-04T09:07:51.637Z,101577.06
2022-12-04T09:08:56.250Z,101570.13
2022-12-04T09:09:59.755Z,101568.47
2022-12-04T09:11:05.892Z,101571.94
2022-12-04T09:12:11.435Z,101566.72
2022-12-04T09:13:14.435Z,101563.16
2022-12-04T09:14:19.467Z,101566.63
2022-12-04T09:15:22.522Z,101567.44
2022-12-04T09:16:26.688Z,101557.75
2022-12-04T09:17:29.833Z,101574.12
2022-12-04T09:18:34.220Z,101570.56
2022-12-04T09:19:41.421Z,101564.50
2022-12-04T09:20:44.406Z,101560.13
2022-12-04T09:21:48.153Z,101556.84
2022-12-04T09:23:03.815Z,101554.28
2022-12-04T09:24:08.746Z,101564.59
2022-12-04T09:25:12.472Z,101556.81
2022-12-04T09:26:28.999Z,101557.69
2022-12-04T09:27:38.052Z,101560.25
2022-12-04T09:28:49.157Z,101557.59
2022-12-04T09:29:58.719Z,101534.28
2022-12-04T09:31:06.247Z,101558.31
2022-12-04T09:32:09.040Z,101558.34
2022-12-04T09:33:12.786Z,101557.41
2022-12-04T09:34:16.275Z,101568.53
2022-12-04T09:35:19.445Z,101564.81
2022-12-04T09:36:22.864Z,101559.13
2022-12-04T09:37:26.113Z,101567.28
2022-12-04T09:38:30.858Z,101562.41
2022-12-04T09:39:33.683Z,101550.66
2022-12-04T09:40:45.293Z,101555.09
2022-12-04T09:42:06.980Z,101557.41
2022-12-04T09:43:31.660Z,101558.97
2022-12-04T09:44:46.030Z,101554.75
2022-12-04T09:45:59.414Z,101554.28
2022-12-04T09:47:09.144Z,101556.88
2022-12-04T09:48:13.367Z,101556.50
2022-12-04T09:49:23.626Z,101545.91
2022-12-04T09:50:41.532Z,101544.59
2022-12-04T09:51:45.708Z,101545.44
2022-12-04T09:53:06.437Z,101547.16
2022-12-04T09:54:23.843Z,101528.41
2022-12-04T09:55:36.871Z,101537.69
2022-12-04T09:56:41.610Z,101533.44
2022-12-04T09:57:50.630Z,101528.81
2022-12-04T09:59:00.459Z,101536.41
2022-12-04T10:00:05.958Z,101538.13
2022-12-04T10:01:33.712Z,101534.16
2022-12-04T10:02:42.641Z,101533.91
2022-12-04T10:03:45.892Z,101528.50
2022-12-04T10:04:49.102Z,101528.91
2022-12-04T10:06:06.137Z,101528.03
2022-12-04T10:07:20.206Z,101525.41
2022-12-04T10:08:35.013Z,101530.53
2022-12-04T10:10:01.284Z,101523.22
2022-12-04T10:11:16.588Z,101527.91
2022-12-04T10:13:18.339Z,101531.59
2022-12-04T10:14:37.541Z,101529.69
2022-12-04T10:15:49.631Z,101527.19
2022-12-04T10:17:21.608Z,101530.75
2022-12-04T10:18:40.125Z,101529.56
2022-12-04T10:19:53.500Z,101519.59
2022-12-04T10:21:11.888Z,101521.72
2022-12-04T10:23:13.505Z,101526.88
2022-12-04T10:24:41.700Z,101521.72
2022-12-04T10:25:44.930Z,101519.97
2022-12-04T10:26:48.989Z,101518.47
2022-12-04T10:28:01.650Z,101519.06
2022-12-04T10:29:08.971Z,101524.28
2022-12-04T10:30:22.958Z,101520.81
2022-12-04T10:31:28.382Z,101514.00
2022-12-04T10:32:35.359Z,101514.50
2022-12-04T10:33:43.899Z,101503.97
2022-12-04T10:34:50.926Z,101514.16
2022-12-04T10:35:54.803Z,101508.19
2022-12-04T10:37:09.617Z,101505.97
2022-12-04T10:38:44.571Z,101502.19
2022-12-04T10:40:08.181Z,101508.97
2022-12-04T10:41:20.967Z,101506.94
2022-12-04T10:42:42.285Z,101498.16
2022-12-04T10:43:50.505Z,101501.53
2022-12-04T10:44:54.273Z,101487.69
2022-12-04T10:45:57.214Z,101492.28
2022-12-04T10:47:02.982Z,101488.22
2022-12-04T10:48:08.368Z,101487.59
2022-12-04T10:49:22.968Z,101492.94
2022-12-04T10:50:46.297Z,101488.38
2022-12-04T10:51:58.281Z,101479.75
2022-12-04T10:53:08.263Z,101483.03
2022-12-04T10:54:35.861Z,101482.88
2022-12-04T10:55:40.170Z,101477.44
2022-12-04T10:56:55.882Z,101475.81
2022-12-04T10:57:58.881Z,101475.38
2022-12-04T10:59:03.448Z,101471.88
2022-12-04T11:00:27.200Z,101470.78
2022-12-04T11:01:32.612Z,101467.34
2022-12-04T11:02:38.098Z,101467.87
2022-12-04T11:03:44.286Z,101461.47
2022-12-04T11:04:58.812Z,101454.91
2022-12-04T11:06:04.998Z,101456.78
2022-12-04T11:07:20.398Z,101452.19
2022-12-04T11:08:27.065Z,101457.37
2022-12-04T11:09:30.468Z,101453.19
2022-12-04T11:10:38.440Z,101459.22
2022-12-04T11:11:41.583Z,101461.13
2022-12-04T11:13:04.372Z,101461.00
2022-12-04T11:14:15.313Z,101460.31
2022-12-04T11:15:18.002Z,101456.34
2022-12-04T11:16:35.275Z,101459.88
2022-12-04T11:17:44.184Z,101458.81
2022-12-04T11:18:50.562Z,101466.31
2022-12-04T11:20:09.108Z,101466.75
2022-12-04T11:21:19.661Z,101464.81
2022-12-04T11:22:22.870Z,101471.28
2022-12-04T11:23:30.556Z,101470.87
2022-12-04T11:24:36.857Z,101464.84
2022-12-04T11:25:47.325Z,101468.16
2022-12-04T11:26:52.248Z,101471.37
2022-12-04T11:27:59.626Z,101465.53
2022-12-04T11:29:05.356Z,101460.78
2022-12-04T11:30:15.903Z,101462.19
2022-12-04T11:31:22.467Z,101465.38
2022-12-04T11:32:34.523Z,101470.69
2022-12-04T11:34:15.560Z,101461.03
2022-12-04T11:35:25.097Z,101450.78
2022-12-04T11:36:32.451Z,101466.25
2022-12-04T11:37:38.208Z,101473.09
2022-12-04T11:38:45.729Z,101430.88
2022-12-04T11:39:49.503Z,101465.62
2022-12-04T11:40:56.978Z,101465.06
2022-12-04T11:42:21.516Z,101465.94
2022-12-04T11:43:31.895Z,101460.56
2022-12-04T11:44:36.697Z,101458.06
2022-12-04T11:45:40.355Z,101466.88
2022-12-04T11:46:53.970Z,101464.50
2022-12-04T11:47:59.923Z,101469.25
2022-12-04T11:49:08.196Z,101463.97
2022-12-04T11:50:18.209Z,101467.31
2022-12-04T11:51:34.464Z,101440.16
2022-12-04T11:53:19.776Z,101461.94
2022-12-04T11:54:41.135Z,101451.59
2022-12-04T11:55:49.163Z,101453.69
2022-12-04T11:57:20.875Z,101450.06
2022-12-04T11:58:35.870Z,101454.47
2022-12-04T12:00:04.225Z,101450.19
2022-12-04T12:01:17.861Z,101445.25
2022-12-04T12:02:42.863Z,101440.81
2022-12-04T12:03:57.440Z,101443.37
2022-12-04T12:05:17.164Z,101441.38
2022-12-04T12:06:35.434Z,101433.37
2022-12-04T12:07:43.294Z,101437.59
2022-12-04T12:08:54.948Z,101434.19
2022-12-04T12:10:28.623Z,101435.16
2022-12-04T12:11:53.135Z,101434.03
2022-12-04T12:13:17.644Z,101433.13
2022-12-04T12:14:33.629Z,101431.56
2022-12-04T12:15:54.395Z,101430.75
2022-12-04T12:17:15.690Z,101433.37
2022-12-04T12:18:51.455Z,101430.13
2022-12-04T12:20:25.272Z,101432.16
2022-12-04T12:21:39.477Z,101431.03
2022-12-04T12:23:40.712Z,101424.78
2022-12-04T12:25:19.105Z,101418.00
2022-12-04T12:26:28.095Z,101423.31
2022-12-04T12:27:52.172Z,101400.41
2022-12-04T12:29:14.561Z,101422.81
2022-12-04T12:30:22.519Z,101423.22
2022-12-04T12:31:35.008Z,101421.44
2022-12-04T12:33:10.432Z,101429.75
2022-12-04T12:34:27.119Z,101427.31
2022-12-04T12:35:32.241Z,101416.13
2022-12-04T12:36:43.707Z,101417.47
2022-12-04T12:37:53.263Z,101415.91
2022-12-04T12:39:02.168Z,101417.56
2022-12-04T12:40:21.731Z,101417.31
2022-12-04T12:41:39.122Z,101422.59
2022-12-04T12:42:58.229Z,101414.88
2022-12-04T12:44:06.232Z,101416.66
2022-12-04T12:45:30.694Z,101417.31
2022-12-04T12:46:44.602Z,101409.66
2022-12-04T12:47:52.559Z,101404.56
2022-12-04T12:48:58.846Z,101413.97
2022-12-04T12:50:10.518Z,101414.81
2022-12-04T12:51:35.296Z,101422.69
2022-12-04T12:52:49.770Z,101418.59
2022-12-04T12:53:58.412Z,101412.38
2022-12-04T12:55:14.649Z,101413.00
2022-12-04T12:56:20.396Z,101409.22
2022-12-04T12:57:32.029Z,101412.16
2022-12-04T12:58:40.654Z,101402.91
2022-12-04T12:59:49.183Z,101399.44
2022-12-04T13:01:08.434Z,101360.94
2022-12-04T13:02:44.540Z,101394.62
2022-12-04T13:04:03.273Z,101393.31
2022-12-04T13:05:11.173Z,101397.62
2022-12-04T13:06:19.269Z,101397.69
2022-12-04T13:07:58.702Z,101384.72
2022-12-04T13:09:13.951Z,101389.09
2022-12-04T13:10:22.119Z,101384.00
2022-12-04T13:11:28.520Z,101391.22
2022-12-04T13:12:49.250Z,101387.09
2022-12-04T13:13:58.720Z,101390.72
2022-12-04T13:15:01.790Z,101386.75
2022-12-04T13:16:21.237Z,101376.31
2022-12-04T13:17:33.608Z,101382.37
2022-12-04T13:18:45.787Z,101379.19
2022-12-04T13:19:53.932Z,101374.97
2022-12-04T13:21:00.814Z,101380.09
2022-12-04T13:22:34.841Z,101383.56
2022-12-04T13:23:50.653Z,101379.41
2022-12-04T13:24:59.056Z,101380.16
2022-12-04T13:26:16.186Z,101375.81
2022-12-04T13:27:34.779Z,101382.19
2022-12-04T13:28:40.143Z,101385.78
2022-12-04T13:29:54.787Z,101383.34
2022-12-04T13:31:11.483Z,101382.59
2022-12-04T13:32:41.827Z,101385.25
2022-12-04T13:33:44.375Z,101379.34
2022-12-04T13:35:07.247Z,101381.06
2022-12-04T13:36:36.644Z,101373.38
2022-12-04T13:37:57.799Z,101362.19
2022-12-04T13:39:38.033Z,101366.56
2022-12-04T13:40:44.945Z,101370.19
2022-12-04T13:41:56.250Z,101365.94
2022-12-04T13:43:17.886Z,101361.72
2022-12-04T13:44:24.608Z,101373.91
2022-12-04T13:45:32.439Z,101365.31
2022-12-04T13:46:39.492Z,101370.53
2022-12-04T13:47:42.269Z,101365.47
2022-12-04T13:48:45.394Z,101371.59
2022-12-04T13:49:48.276Z,101368.19
2022-12-04T13:51:20.773Z,101371.72
2022-12-04T13:52:36.689Z,101375.25
2022-12-04T13:53:40.487Z,101371.88
2022-12-04T13:54:43.387Z,101371.03
2022-12-04T13:55:56.361Z,101368.50
2022-12-04T13:57:17.451Z,101371.16
2022-12-04T13:58:20.048Z,101376.41
2022-12-04T13:59:28.621Z,101374.78
2022-12-04T14:00:35.057Z,101373.94
2022-12-04T14:01:41.020Z,101374.78
2022-12-04T14:02:51.806Z,101373.16
2022-12-04T14:03:57.459Z,101366.34
2022-12-04T14:05:04.684Z,101371.53
2022-12-04T14:06:24.615Z,101380.31
2022-12-04T14:07:33.862Z,101368.22
2022-12-04T14:08:40.584Z,101373.44
2022-12-04T14:09:54.239Z,101372.66
2022-12-04T14:10:59.018Z,101371.88
2022-12-04T14:12:05.955Z,101375.34
2022-12-04T14:13:20.045Z,101371.94
2022-12-04T14:14:38.795Z,101372.06
2022-12-04T14:15:41.786Z,101377.31
2022-12-04T14:16:49.479Z,101381.72
2022-12-04T14:18:14.797Z,101386.97
2022-12-04T14:19:35.426Z,101389.63
2022-12-04T14:20:39.214Z,101386.22
2022-12-04T14:21:48.406Z,101388.91
2022-12-04T14:22:51.139Z,101395.84
2022-12-04T14:23:54.199Z,101394.22
2022-12-04T14:25:14.251Z,101395.97
2022-12-04T14:26:19.885Z,101395.19
2022-12-04T14:27:42.716Z,101396.03
2022-12-04T14:28:45.915Z,101398.69
2022-12-04T14:29:56.720Z,101402.25
2022-12-04T14:31:05.694Z,101404.91
2022-12-04T14:32:17.263Z,101402.34
2022-12-04T14:33:22.883Z,101409.31
2022-12-04T14:34:36.376Z,101406.72
2022-12-04T14:35:53.212Z,101405.03